createdAt,value
2017-09-16T00:02:10.464Z,20.50
2017-09-16T00:04:38.289Z,19.27
2017-09-16T00:07:06.097Z,20.23
2017-09-16T00:09:40.859Z,21.10
2017-09-16T00:12:08.704Z,22.30
2017-09-16T00:14:36.508Z,18.67
2017-09-16T00:17:04.429Z,19.87
2017-09-16T00:19:33.012Z,22.70
2017-09-16T00:22:00.846Z,24.27
2017-09-16T00:24:28.681Z,24.07
2017-09-16T00:26:56.491Z,21.90
2017-09-16T00:29:24.309Z,22.67
2017-09-16T00:31:52.185Z,24.97
2017-09-16T00:34:20.028Z,24.33
2017-09-16T00:36:47.853Z,24.27
2017-09-16T00:39:16.220Z,23.97
2017-09-16T00:41:44.049Z,25.07
2017-09-16T00:44:11.866Z,25.00
2017-09-16T00:46:39.684Z,24.87
2017-09-16T00:49:07.531Z,24.40
2017-09-16T00:51:35.369Z,25.60
2017-09-16T00:54:03.191Z,26.90
2017-09-16T00:56:30.999Z,25.23
2017-09-16T00:58:58.817Z,26.77
2017-09-16T01:01:26.626Z,25.40
2017-09-16T01:03:54.449Z,27.43
2017-09-16T01:06:22.253Z,25.40
2017-09-16T01:08:50.067Z,26.33
2017-09-16T01:11:17.882Z,25.07
2017-09-16T01:13:45.702Z,24.60
2017-09-16T01:16:13.532Z,26.73
2017-09-16T01:18:41.337Z,25.53
2017-09-16T01:21:09.141Z,26.37
2017-09-16T01:23:36.953Z,25.90
2017-09-16T01:26:04.776Z,26.30
2017-09-16T01:28:32.634Z,27.97
2017-09-16T01:31:00.452Z,26.67
2017-09-16T01:33:28.264Z,26.43
2017-09-16T01:35:56.086Z,25.70
2017-09-16T01:38:23.902Z,24.67
2017-09-16T01:40:51.747Z,26.37
2017-09-16T01:43:19.617Z,26.70
2017-09-16T01:45:47.452Z,28.13
2017-09-16T01:48:15.277Z,29.00
2017-09-16T01:50:43.076Z,30.13
2017-09-16T01:53:10.944Z,27.13
2017-09-16T01:55:38.756Z,28.60
2017-09-16T01:58:06.573Z,28.37
2017-09-16T02:00:34.398Z,29.40
2017-09-16T02:03:02.242Z,31.53
2017-09-16T02:05:30.056Z,28.37
2017-09-16T02:07:57.870Z,28.03
2017-09-16T02:10:25.669Z,28.63
2017-09-16T02:12:53.497Z,28.83
2017-09-16T02:15:21.401Z,26.63
2017-09-16T02:17:49.226Z,25.57
2017-09-16T02:20:17.033Z,25.23
2017-09-16T02:22:44.853Z,27.80
2017-09-16T02:25:12.665Z,28.13
2017-09-16T02:27:40.483Z,27.80
2017-09-16T02:30:08.278Z,26.07
2017-09-16T02:32:36.110Z,26.43
2017-09-16T02:35:03.937Z,29.03
2017-09-16T02:37:31.740Z,27.20
2017-09-16T02:39:59.561Z,29.10
2017-09-16T02:42:27.380Z,26.20
2017-09-16T02:44:55.193Z,27.93
2017-09-16T02:47:23.006Z,28.10
2017-09-16T02:49:50.831Z,25.27
2017-09-16T02:52:18.632Z,27.43
2017-09-16T02:54:46.437Z,26.60
2017-09-16T02:57:14.263Z,27.60
2017-09-16T02:59:42.126Z,28.20
2017-09-16T03:02:09.954Z,26.70
2017-09-16T03:04:37.777Z,27.63
2017-09-16T03:07:05.584Z,27.80
2017-09-16T03:09:33.434Z,29.00
2017-09-16T03:12:01.560Z,26.20
2017-09-16T03:14:29.383Z,26.50
2017-09-16T03:16:57.223Z,25.77
2017-09-16T03:19:25.048Z,26.77
2017-09-16T03:21:52.872Z,24.60
2017-09-16T03:24:20.663Z,25.20
2017-09-16T03:26:48.483Z,24.67
2017-09-16T03:29:16.308Z,27.20
2017-09-16T03:31:44.124Z,27.90
2017-09-16T03:34:11.935Z,26.07
2017-09-16T03:36:39.749Z,27.07
2017-09-16T03:39:07.545Z,25.40
2017-09-16T03:41:35.364Z,26.37
2017-09-16T03:44:03.196Z,26.40
2017-09-16T03:46:31.000Z,27.43
2017-09-16T03:48:58.803Z,25.43
2017-09-16T03:51:26.650Z,26.90
2017-09-16T03:53:54.467Z,24.43
2017-09-16T03:56:22.421Z,26.57
2017-09-16T03:58:50.240Z,26.27
2017-09-16T04:01:24.237Z,24.93
2017-09-16T04:03:52.061Z,25.50
2017-09-16T04:06:19.868Z,27.30
2017-09-16T04:08:47.688Z,26.83
2017-09-16T04:11:15.528Z,27.20
2017-09-16T04:13:43.339Z,26.47
2017-09-16T04:16:11.155Z,27.67
2017-09-16T04:18:38.961Z,29.43
2017-09-16T04:21:06.770Z,31.33
2017-09-16T04:23:34.640Z,29.03
2017-09-16T04:26:02.497Z,28.07
2017-09-16T04:28:30.347Z,27.27
2017-09-16T04:30:58.176Z,29.63
2017-09-16T04:33:26.149Z,28.60
2017-09-16T04:35:54.112Z,28.97
2017-09-16T04:38:21.936Z,31.30
2017-09-16T04:40:49.754Z,30.30
2017-09-16T04:43:17.566Z,31.60
2017-09-16T04:45:45.394Z,32.20
2017-09-16T04:48:13.204Z,30.70
2017-09-16T04:50:41.040Z,34.23
2017-09-16T04:53:08.858Z,31.27
2017-09-16T04:55:36.700Z,33.43
2017-09-16T04:58:04.541Z,32.50
2017-09-16T05:00:32.360Z,33.87
2017-09-16T05:03:00.164Z,35.10
2017-09-16T05:05:27.964Z,30.83
2017-09-16T05:07:55.793Z,33.10
2017-09-16T05:10:23.615Z,32.80
2017-09-16T05:12:51.425Z,31.83
2017-09-16T05:15:19.234Z,32.60
2017-09-16T05:17:47.045Z,32.80
2017-09-16T05:20:14.876Z,31.63
2017-09-16T05:22:42.697Z,33.00
2017-09-16T05:25:10.520Z,35.47
2017-09-16T05:27:38.354Z,36.20
2017-09-16T05:30:06.147Z,34.07
2017-09-16T05:32:33.961Z,33.57
2017-09-16T05:35:01.789Z,32.33
2017-09-16T05:37:29.596Z,33.27
2017-09-16T05:39:57.391Z,31.60
2017-09-16T05:42:25.358Z,34.00
2017-09-16T05:44:53.165Z,36.07
2017-09-16T05:47:21.016Z,39.17
2017-09-16T05:49:48.857Z,35.30
2017-09-16T05:52:16.685Z,36.23
2017-09-16T05:54:44.584Z,37.53
2017-09-16T05:57:12.416Z,38.97
2017-09-16T05:59:40.253Z,36.87
2017-09-16T06:02:08.078Z,35.40
2017-09-16T06:04:35.981Z,40.17
2017-09-16T06:07:03.844Z,39.57
2017-09-16T06:09:31.723Z,38.20
2017-09-16T06:11:59.573Z,38.13
2017-09-16T06:14:27.455Z,38.47
2017-09-16T06:16:55.248Z,38.70
2017-09-16T06:19:23.449Z,41.53
2017-09-16T06:21:51.292Z,41.37
2017-09-16T06:24:19.120Z,42.20
2017-09-16T06:26:46.972Z,43.60
2017-09-16T06:29:14.838Z,44.57
2017-09-16T06:31:42.628Z,40.83
2017-09-16T06:34:10.471Z,39.57
2017-09-16T06:36:38.290Z,40.47
2017-09-16T06:39:06.112Z,39.37
2017-09-16T06:41:33.930Z,36.57
2017-09-16T06:44:01.752Z,37.47
2017-09-16T06:46:29.581Z,35.80
2017-09-16T06:48:57.425Z,32.43
2017-09-16T06:51:25.248Z,32.10
2017-09-16T06:53:53.095Z,31.77
2017-09-16T06:56:20.901Z,29.17
2017-09-16T06:58:48.705Z,30.60
2017-09-16T07:01:16.551Z,33.13
2017-09-16T07:03:44.384Z,30.73
2017-09-16T07:06:12.212Z,29.30
2017-09-16T07:08:40.013Z,31.73
2017-09-16T07:11:07.870Z,30.97
2017-09-16T07:13:35.697Z,31.10
2017-09-16T07:16:03.520Z,32.40
2017-09-16T07:18:31.372Z,35.57
2017-09-16T07:20:59.185Z,33.87
2017-09-16T07:23:26.990Z,34.10
2017-09-16T07:25:54.798Z,37.33
2017-09-16T07:28:22.604Z,37.73
2017-09-16T07:30:50.425Z,38.47
2017-09-16T07:33:18.274Z,37.57
2017-09-16T07:35:46.101Z,38.00
2017-09-16T07:38:13.921Z,37.37
2017-09-16T07:40:41.729Z,33.93
2017-09-16T07:43:09.553Z,35.57
2017-09-16T07:45:37.391Z,35.03
2017-09-16T07:48:05.220Z,34.17
2017-09-16T07:50:33.076Z,33.07
2017-09-16T07:53:00.889Z,33.83
2017-09-16T07:55:28.708Z,31.97
2017-09-16T07:57:56.520Z,32.30
2017-09-16T08:00:24.340Z,32.63
2017-09-16T08:02:52.152Z,26.53
2017-09-16T08:05:19.985Z,28.10
2017-09-16T08:07:47.801Z,27.87
2017-09-16T08:10:15.625Z,27.20
2017-09-16T08:12:43.453Z,26.10
2017-09-16T08:15:11.277Z,24.47
2017-09-16T08:17:39.073Z,24.60
2017-09-16T08:20:06.900Z,24.00
2017-09-16T08:22:34.708Z,24.30
2017-09-16T08:25:02.552Z,23.20
2017-09-16T08:27:30.348Z,22.97
2017-09-16T08:29:58.185Z,22.40
2017-09-16T08:32:26.002Z,22.50
2017-09-16T08:34:53.825Z,21.20
2017-09-16T08:37:21.644Z,17.10
2017-09-16T08:39:49.465Z,18.53
2017-09-16T08:42:17.305Z,18.90
2017-09-16T08:44:45.142Z,18.60
2017-09-16T08:47:12.962Z,18.33
2017-09-16T08:49:40.768Z,19.07
2017-09-16T08:52:08.604Z,17.87
2017-09-16T08:54:36.428Z,19.10
2017-09-16T08:57:04.293Z,20.10
2017-09-16T08:59:32.129Z,17.00
2017-09-16T09:01:59.969Z,18.33
2017-09-16T09:04:27.797Z,18.90
2017-09-16T09:06:55.622Z,20.90
2017-09-16T09:09:23.466Z,20.80
2017-09-16T09:11:51.296Z,20.10
2017-09-16T09:14:19.104Z,19.53
2017-09-16T09:16:46.912Z,20.67
2017-09-16T09:19:14.733Z,18.93
2017-09-16T09:21:42.650Z,22.37
2017-09-16T09:24:10.449Z,20.30
2017-09-16T09:26:38.271Z,21.80
2017-09-16T09:29:07.956Z,21.70
2017-09-16T09:31:35.904Z,21.60
2017-09-16T09:34:03.736Z,22.90
2017-09-16T09:36:31.579Z,22.37
2017-09-16T09:38:59.405Z,24.27
2017-09-16T09:41:27.224Z,23.13
2017-09-16T09:43:55.052Z,21.90
2017-09-16T09:46:22.853Z,22.37
2017-09-16T09:48:51.584Z,22.07
2017-09-16T09:51:19.400Z,24.73
2017-09-16T09:53:47.269Z,21.60
2017-09-16T09:56:15.073Z,22.27
2017-09-16T09:58:42.928Z,21.57
2017-09-16T10:01:10.732Z,20.17
2017-09-16T10:03:38.595Z,22.93
2017-09-16T10:06:06.484Z,26.33
2017-09-16T10:08:34.324Z,23.17
2017-09-16T10:11:02.518Z,24.60
2017-09-16T10:13:30.338Z,24.47
2017-09-16T10:15:58.156Z,25.20
2017-09-16T10:18:25.993Z,25.77
2017-09-16T10:20:53.833Z,24.47
2017-09-16T10:23:21.652Z,23.63
2017-09-16T10:25:49.484Z,21.80
2017-09-16T10:28:17.276Z,20.57
2017-09-16T10:30:45.141Z,23.53
2017-09-16T10:33:12.973Z,23.70
2017-09-16T10:35:40.815Z,22.10
2017-09-16T10:38:08.612Z,22.20
2017-09-16T10:40:36.645Z,23.00
2017-09-16T10:43:04.516Z,23.40
2017-09-16T10:45:32.389Z,24.87
2017-09-16T10:48:00.313Z,23.30
2017-09-16T10:50:28.264Z,25.00
2017-09-16T10:52:56.092Z,26.50
2017-09-16T10:55:23.909Z,25.97
2017-09-16T10:57:51.728Z,26.13
2017-09-16T11:00:19.529Z,25.33
2017-09-16T11:02:47.369Z,22.60
2017-09-16T11:05:15.225Z,22.87
2017-09-16T11:07:43.044Z,22.03
2017-09-16T11:10:10.876Z,21.90
2017-09-16T11:12:38.697Z,23.53
2017-09-16T11:15:06.492Z,22.70
2017-09-16T11:17:34.329Z,22.77
2017-09-16T11:20:02.129Z,24.00
2017-09-16T11:22:29.964Z,22.23
2017-09-16T11:24:57.748Z,24.33
2017-09-16T11:27:25.564Z,26.50
2017-09-16T11:29:53.353Z,25.73
2017-09-16T11:32:21.176Z,28.53
2017-09-16T11:34:48.988Z,26.40
2017-09-16T11:37:16.838Z,26.77
2017-09-16T11:39:44.644Z,28.13
2017-09-16T11:42:12.487Z,26.90
2017-09-16T11:44:40.298Z,27.67
2017-09-16T11:47:08.105Z,26.60
2017-09-16T11:49:36.081Z,25.80
2017-09-16T11:52:03.905Z,24.00
2017-09-16T11:54:31.735Z,23.70
2017-09-16T11:56:59.578Z,24.80
2017-09-16T11:59:27.552Z,24.20
2017-09-16T12:01:55.355Z,24.00
2017-09-16T12:04:23.173Z,22.00
2017-09-16T12:06:50.984Z,22.23
2017-09-16T12:09:18.789Z,24.37
2017-09-16T12:11:46.623Z,22.07
2017-09-16T12:14:15.076Z,22.07
2017-09-16T12:16:42.909Z,21.80
2017-09-16T12:19:10.743Z,21.70
2017-09-16T12:21:38.537Z,23.10
2017-09-16T12:24:06.370Z,21.23
2017-09-16T12:26:34.217Z,21.63
2017-09-16T12:29:02.265Z,20.13
2017-09-16T12:31:30.065Z,20.43
2017-09-16T12:33:58.016Z,22.93
2017-09-16T12:36:25.827Z,21.40
2017-09-16T12:38:53.649Z,23.77
2017-09-16T12:41:21.509Z,23.47
2017-09-16T12:43:49.333Z,23.90
2017-09-16T12:46:17.146Z,26.00
2017-09-16T12:48:44.969Z,27.40
2017-09-16T12:51:12.820Z,26.30
2017-09-16T12:53:40.641Z,30.07
2017-09-16T12:56:08.468Z,29.80
2017-09-16T12:58:36.289Z,32.57
2017-09-16T13:01:04.124Z,31.50
2017-09-16T13:03:31.943Z,32.27
2017-09-16T13:05:59.764Z,29.83
2017-09-16T13:08:27.583Z,32.10
2017-09-16T13:10:55.445Z,33.63
2017-09-16T13:13:23.262Z,30.20
2017-09-16T13:15:51.068Z,30.93
2017-09-16T13:18:18.891Z,27.03
2017-09-16T13:20:46.715Z,28.23
2017-09-16T13:23:14.529Z,30.33
2017-09-16T13:25:42.333Z,29.67
2017-09-16T13:28:10.153Z,31.23
2017-09-16T13:30:37.964Z,29.93
2017-09-16T13:33:05.765Z,25.70
2017-09-16T13:35:33.564Z,25.47
2017-09-16T13:38:01.416Z,24.53
2017-09-16T13:40:29.269Z,25.73
2017-09-16T13:42:57.097Z,24.30
2017-09-16T13:45:24.928Z,23.70
2017-09-16T13:47:52.760Z,22.07
2017-09-16T13:50:20.583Z,24.27
2017-09-16T13:52:48.449Z,22.33
2017-09-16T13:55:16.257Z,20.10
2017-09-16T13:57:44.064Z,18.27
2017-09-16T14:00:11.887Z,17.03
2017-09-16T14:02:39.710Z,16.73
2017-09-16T14:05:07.584Z,16.80
2017-09-16T14:07:35.406Z,15.90
2017-09-16T14:10:03.223Z,16.50
2017-09-16T14:12:31.029Z,16.33
2017-09-16T14:14:58.867Z,17.13
2017-09-16T14:17:26.680Z,16.10
2017-09-16T14:19:54.505Z,16.10
2017-09-16T14:22:22.529Z,16.40
2017-09-16T14:24:50.445Z,15.37
2017-09-16T14:27:18.241Z,17.47
2017-09-16T14:29:46.061Z,18.03
2017-09-16T14:32:13.877Z,16.97
2017-09-16T14:34:41.693Z,16.03
2017-09-16T14:37:09.484Z,17.00
2017-09-16T14:39:37.332Z,15.70
2017-09-16T14:42:05.153Z,16.43
2017-09-16T14:44:32.967Z,16.67
2017-09-16T14:47:00.799Z,17.47
2017-09-16T14:49:28.636Z,17.87
2017-09-16T14:51:56.476Z,18.20
2017-09-16T14:54:24.321Z,17.17
2017-09-16T14:56:52.161Z,16.20
2017-09-16T14:59:20.012Z,18.53
2017-09-16T15:01:47.858Z,18.40
2017-09-16T15:04:15.681Z,17.80
2017-09-16T15:06:43.522Z,16.93
2017-09-16T15:09:11.356Z,18.60
2017-09-16T15:11:39.232Z,18.27
2017-09-16T15:14:07.045Z,16.77
2017-09-16T15:16:34.849Z,17.87
2017-09-16T15:19:02.664Z,17.10
2017-09-16T15:21:30.540Z,17.77
2017-09-16T15:23:58.349Z,16.47
2017-09-16T15:26:26.167Z,16.37
2017-09-16T15:28:53.982Z,17.57
2017-09-16T15:31:21.793Z,16.80
2017-09-16T15:33:49.632Z,15.33
2017-09-16T15:36:17.453Z,15.20
2017-09-16T15:38:45.258Z,15.90
2017-09-16T15:41:13.052Z,15.67
2017-09-16T15:43:40.860Z,15.57
2017-09-16T15:46:08.700Z,14.80
2017-09-16T15:48:36.500Z,14.40
2017-09-16T15:51:04.313Z,16.53
2017-09-16T15:53:32.134Z,16.80
2017-09-16T15:55:59.971Z,16.10
2017-09-16T15:58:27.805Z,16.90
2017-09-16T16:00:55.613Z,16.53
2017-09-16T16:03:23.451Z,16.27
2017-09-16T16:05:51.253Z,14.50
2017-09-16T16:08:19.064Z,16.07
2017-09-16T16:10:46.932Z,14.17
2017-09-16T16:13:14.758Z,16.20
2017-09-16T16:15:44.442Z,17.03
2017-09-16T16:18:12.276Z,18.20
2017-09-16T16:20:40.097Z,17.00
2017-09-16T16:23:07.941Z,16.60
2017-09-16T16:25:35.777Z,17.80
2017-09-16T16:28:03.593Z,17.30
2017-09-16T16:30:31.445Z,17.33
2017-09-16T16:32:59.273Z,15.80
2017-09-16T16:35:27.144Z,14.90
2017-09-16T16:37:54.956Z,13.90
2017-09-16T16:40:22.807Z,12.77
2017-09-16T16:42:50.629Z,14.20
2017-09-16T16:45:18.453Z,13.07
2017-09-16T16:47:46.297Z,13.47
2017-09-16T16:50:14.124Z,13.50
2017-09-16T16:52:41.953Z,13.63
2017-09-16T16:55:09.769Z,15.37
2017-09-16T16:57:37.588Z,14.63
2017-09-16T17:00:05.396Z,15.10
2017-09-16T17:02:33.236Z,15.03
2017-09-16T17:05:01.044Z,14.40
2017-09-16T17:07:28.866Z,14.43
2017-09-16T17:09:56.737Z,15.60
2017-09-16T17:12:24.615Z,14.63
2017-09-16T17:14:52.544Z,16.53
2017-09-16T17:17:20.420Z,16.37
2017-09-16T17:19:48.241Z,14.70
2017-09-16T17:22:16.184Z,14.07
2017-09-16T17:24:44.046Z,14.30
2017-09-16T17:27:11.922Z,16.10
2017-09-16T17:29:39.761Z,14.30
2017-09-16T17:32:07.629Z,13.63
2017-09-16T17:34:35.497Z,13.73
2017-09-16T17:37:03.332Z,14.50
2017-09-16T17:39:31.167Z,13.47
2017-09-16T17:41:59.010Z,12.53
2017-09-16T17:44:26.879Z,13.93
2017-09-16T17:46:54.723Z,13.27
2017-09-16T17:49:22.573Z,13.53
2017-09-16T17:51:50.426Z,14.67
2017-09-16T17:54:18.263Z,13.30
2017-09-16T17:56:46.109Z,13.83
2017-09-16T17:59:13.958Z,12.50
2017-09-16T18:01:42.425Z,12.90
2017-09-16T18:04:10.339Z,12.60
2017-09-16T18:06:38.161Z,12.67
2017-09-16T18:09:06.013Z,11.97
2017-09-16T18:11:33.840Z,13.53
2017-09-16T18:14:01.714Z,12.60
2017-09-16T18:16:29.545Z,11.70
2017-09-16T18:18:57.440Z,12.03
2017-09-16T18:21:25.278Z,12.43
2017-09-16T18:23:53.109Z,14.03
2017-09-16T18:26:20.945Z,12.03
2017-09-16T18:28:48.767Z,13.83
2017-09-16T18:31:16.667Z,12.87
2017-09-16T18:33:44.538Z,12.37
2017-09-16T18:36:12.416Z,12.93
2017-09-16T18:38:40.254Z,12.27
2017-09-16T18:41:08.225Z,12.27
2017-09-16T18:43:36.085Z,12.17
2017-09-16T18:46:03.938Z,12.00
2017-09-16T18:48:31.795Z,11.23
2017-09-16T18:50:59.762Z,13.07
2017-09-16T18:53:27.668Z,13.90
2017-09-16T18:55:55.512Z,14.10
2017-09-16T18:58:23.469Z,14.50
2017-09-16T19:00:51.421Z,13.60
2017-09-16T19:03:19.252Z,12.10
2017-09-16T19:05:48.069Z,10.90
2017-09-16T19:08:15.922Z,14.30
2017-09-16T19:10:43.823Z,14.10
2017-09-16T19:13:11.755Z,16.10
2017-09-16T19:15:39.673Z,20.43
2017-09-16T19:18:07.513Z,14.97
2017-09-16T19:20:35.385Z,15.50
2017-09-16T19:23:03.271Z,15.37
2017-09-16T19:25:31.192Z,15.50
2017-09-16T19:27:59.061Z,13.80
2017-09-16T19:30:26.934Z,16.10
2017-09-16T19:32:54.789Z,13.53
2017-09-16T19:35:22.660Z,16.50
2017-09-16T19:37:50.497Z,16.40
2017-09-16T19:40:18.369Z,15.37
2017-09-16T19:42:46.228Z,15.00
2017-09-16T19:45:14.068Z,15.80
2017-09-16T19:47:41.886Z,16.07
2017-09-16T19:50:09.750Z,17.50
2017-09-16T19:52:37.592Z,18.87
2017-09-16T19:55:05.452Z,15.40
2017-09-16T19:57:33.288Z,17.33
2017-09-16T20:00:01.161Z,14.67
2017-09-16T20:02:28.973Z,17.03
2017-09-16T20:04:56.844Z,14.70
2017-09-16T20:07:24.652Z,16.07
2017-09-16T20:09:52.516Z,14.93
2017-09-16T20:12:20.384Z,14.20
2017-09-16T20:14:48.205Z,13.60
2017-09-16T20:17:16.021Z,14.90
2017-09-16T20:19:43.835Z,16.40
2017-09-16T20:22:11.702Z,14.90
2017-09-16T20:24:39.504Z,16.80
2017-09-16T20:27:07.350Z,16.50
2017-09-16T20:29:35.163Z,15.20
2017-09-16T20:32:03.004Z,14.90
2017-09-16T20:34:30.825Z,15.03
2017-09-16T20:36:58.689Z,15.73
2017-09-16T20:39:26.496Z,16.90
2017-09-16T20:41:54.321Z,14.90
2017-09-16T20:44:25.373Z,15.40
2017-09-16T20:46:53.228Z,15.67
2017-09-16T20:49:21.045Z,16.83
2017-09-16T20:51:48.895Z,15.87
2017-09-16T20:54:16.717Z,17.70
2017-09-16T20:56:44.544Z,17.40
2017-09-16T20:59:12.348Z,17.47
2017-09-16T21:01:40.148Z,19.10
2017-09-16T21:04:07.972Z,18.83
2017-09-16T21:06:35.784Z,16.13
2017-09-16T21:09:03.609Z,17.30
2017-09-16T21:11:31.479Z,18.77
2017-09-16T21:13:59.316Z,16.57
2017-09-16T21:16:27.152Z,18.27
2017-09-16T21:18:55.125Z,15.10
2017-09-16T21:21:22.957Z,17.63
2017-09-16T21:23:50.786Z,16.37
2017-09-16T21:26:18.611Z,16.70
2017-09-16T21:28:46.439Z,17.07
2017-09-16T21:31:14.305Z,16.57
2017-09-16T21:33:42.145Z,17.13
2017-09-16T21:36:09.951Z,16.53
2017-09-16T21:38:37.813Z,18.13
2017-09-16T21:41:05.626Z,17.30
2017-09-16T21:43:33.666Z,18.00
2017-09-16T21:46:01.477Z,15.80
2017-09-16T21:48:29.295Z,18.77
2017-09-16T21:50:57.113Z,19.67
2017-09-16T21:53:24.940Z,19.67
2017-09-16T21:55:52.758Z,19.30
2017-09-16T21:58:20.560Z,17.00
2017-09-16T22:00:48.377Z,18.40
2017-09-16T22:03:16.192Z,19.60
2017-09-16T22:05:44.012Z,18.87
2017-09-16T22:08:11.816Z,19.17
2017-09-16T22:10:39.645Z,20.70
2017-09-16T22:13:07.493Z,20.33
2017-09-16T22:15:35.337Z,21.77
2017-09-16T22:18:03.128Z,20.83
2017-09-16T22:20:31.260Z,21.40
2017-09-16T22:22:59.172Z,22.10
2017-09-16T22:25:27.004Z,21.53
2017-09-16T22:27:54.809Z,21.93
2017-09-16T22:30:22.640Z,20.10
2017-09-16T22:32:50.501Z,21.97
2017-09-16T22:35:18.339Z,19.60
2017-09-16T22:37:46.160Z,20.20
2017-09-16T22:40:13.973Z,19.70
2017-09-16T22:42:41.788Z,20.60
2017-09-16T22:45:09.579Z,21.27
2017-09-16T22:47:37.418Z,20.27
2017-09-16T22:50:05.241Z,19.47
2017-09-16T22:52:33.066Z,19.40
2017-09-16T22:55:00.892Z,20.30
2017-09-16T22:57:28.696Z,19.93
2017-09-16T22:59:56.496Z,20.50
2017-09-16T23:02:24.309Z,18.50
2017-09-16T23:04:52.133Z,19.30
2017-09-16T23:07:19.933Z,19.10
2017-09-16T23:09:47.760Z,19.20
2017-09-16T23:12:15.588Z,20.03
2017-09-16T23:14:43.418Z,21.00
2017-09-16T23:17:11.213Z,19.70
2017-09-16T23:19:39.028Z,20.67
2017-09-16T23:22:06.845Z,21.33
2017-09-16T23:24:34.663Z,20.43
2017-09-16T23:27:02.474Z,18.63
2017-09-16T23:29:30.306Z,19.10
2017-09-16T23:31:58.181Z,19.10
2017-09-16T23:34:26.294Z,19.63
2017-09-16T23:36:54.094Z,19.30
2017-09-16T23:39:22.060Z,18.40
2017-09-16T23:41:49.891Z,22.20
2017-09-16T23:44:17.718Z,18.90
2017-09-16T23:46:45.548Z,18.70
2017-09-16T23:49:13.365Z,20.23
2017-09-16T23:51:41.208Z,20.40
2017-09-16T23:54:09.013Z,22.30
2017-09-16T23:56:36.844Z,22.17
2017-09-16T23:59:04.681Z,21.07
